Time,TemperatureF,DewpointF,PressureIn,WindDirection,WindDirectionDegrees,WindSpeedMPH,WindSpeedGustMPH,Humidity,HourlyPrecipIn,Conditions,Clouds,dailyrainin,SolarRadiationWatts/m^2,SoftwareType,DateUTC
2013-08-05 00:03:00,69.8,66.7,29.97,SE,142,0.0,0.0,90,0.00,,---,0.00,0.00,VWS V14.00,2013-08-05 05:03:00,
2013-08-05 00:08:00,69.6,66.5,29.97,SE,142,0.0,0.0,90,0.00,,---,0.00,0.00,VWS V14.00,2013-08-05 05:08:00,
2013-08-05 00:13:00,69.4,66.3,29.97,SE,143,0.0,0.0,90,0.00,,---,0.00,0.00,VWS V14.00,2013-08-05 05:13:00,
2013-08-05 00:18:00,69.3,66.2,29.96,SE,144,0.0,0.0,90,0.00,,---,0.00,0.00,VWS V14.00,2013-08-05 05:18:00,
2013-08-05 00:23:00,69.2,66.5,29.95,SE,145,0.0,1.0,91,0.00,,---,0.00,0.00,VWS V14.00,2013-08-05 05:23:00,
2013-08-05 00:28:00,69.1,66.4,29.95,SSE,147,0.0,0.0,91,0.00,,---,0.00,0.00,VWS V14.00,2013-08-05 05:28:00,
2013-08-05 00:33:00,69.0,66.3,29.95,SE,145,0.0,0.0,91,0.00,,---,0.00,0.00,VWS V14.00,2013-08-05 05:33:00,
2013-08-05 00:38:00,68.9,66.2,29.94,SE,146,0.0,0.0,91,0.00,,---,0.00,0.00,VWS V14.00,2013-08-05 05:38:00,
2013-08-05 00:43:00,68.8,66.1,29.94,SE,146,0.0,0.0,91,0.00,,---,0.00,0.00,VWS V14.00,2013-08-05 05:43:00,
2013-08-05 00:48:00,68.7,66.3,29.94,SE,146,0.0,0.0,92,0.00,,---,0.00,0.00,VWS V14.00,2013-08-05 05:48:00,
2013-08-05 00:53:00,68.6,66.2,29.94,SE,146,0.0,0.0,92,0.00,,---,0.00,0.00,VWS V14.00,2013-08-05 05:53:00,
2013-08-05 00:58:00,68.5,66.1,29.94,SE,146,0.0,0.0,92,0.00,,---,0.00,0.00,VWS V14.00,2013-08-05 05:58:00,
2013-08-05 01:03:00,68.4,66.0,29.94,SE,146,0.0,0.0,92,0.00,,---,0.00,0.00,VWS V14.00,2013-08-05 06:03:00,
2013-08-05 01:08:00,68.3,65.9,29.94,SE,146,0.0,0.0,92,0.00,,---,0.00,0.00,VWS V14.00,2013-08-05 06:08:00,
2013-08-05 01:13:00,68.2,65.8,29.94,SE,146,0.0,0.0,92,0.00,,---,0.00,0.00,VWS V14.00,2013-08-05 06:13:00,
2013-08-05 01:19:00,68.0,65.6,29.94,SE,146,0.0,0.0,92,0.00,,---,0.00,0.00,VWS V14.00,2013-08-05 06:19:00,
2013-08-05 01:24:00,67.9,65.5,29.94,SE,146,0.0,0.0,92,0.00,,---,0.00,0.00,VWS V14.00,2013-08-05 06:24:00,
2013-08-05 01:29:00,67.8,65.4,29.94,SE,146,0.0,0.0,92,0.00,,---,0.00,0.00,VWS V14.00,2013-08-05 06:29:00,
2013-08-05 01:34:00,67.6,65.5,29.94,SE,146,0.0,0.0,93,0.00,,---,0.00,0.00,VWS V14.00,2013-08-05 06:34:00,
2013-08-05 01:39:00,67.5,65.4,29.93,SE,146,0.0,0.0,93,0.00,,---,0.00,0.00,VWS V14.00,2013-08-05 06:39:00,
2013-08-05 01:44:00,67.4,65.3,29.94,SE,146,0.0,0.0,93,0.00,,---,0.00,0.00,VWS V14.00,2013-08-05 06:44:00,
2013-08-05 01:49:00,67.3,65.2,29.93,SE,146,0.0,0.0,93,0.00,,---,0.00,0.00,VWS V14.00,2013-08-05 06:49:00,
2013-08-05 01:54:00,67.2,65.1,29.93,SE,146,0.0,0.0,93,0.00,,---,0.00,0.00,VWS V14.00,2013-08-05 06:54:00,
2013-08-05 01:59:00,67.0,64.9,29.92,SE,146,0.0,0.0,93,0.00,,---,0.00,0.00,VWS V14.00,2013-08-05 06:59:00,
2013-08-05 02:04:00,67.0,64.9,29.92,SE,146,0.0,0.0,93,0.00,,---,0.00,0.00,VWS V14.00,2013-08-05 07:04:00,
2013-08-05 02:09:00,67.0,65.2,29.91,SE,146,0.0,0.0,94,0.00,,---,0.00,0.00,VWS V14.00,2013-08-05 07:09:00,
2013-08-05 02:14:00,67.0,65.2,29.91,SE,146,0.0,0.0,94,0.00,,---,0.00,0.00,VWS V14.00,2013-08-05 07:14:00,
2013-08-05 02:19:00,67.0,65.2,29.91,SE,146,0.0,0.0,94,0.00,,---,0.00,0.00,VWS V14.00,2013-08-05 07:19:00,
2013-08-05 02:24:00,67.0,65.2,29.91,SSE,147,0.0,0.0,94,0.00,,---,0.00,0.00,VWS V14.00,2013-08-05 07:24:00,
2013-08-05 02:29:00,67.1,65.3,29.90,SSE,147,0.0,0.0,94,0.00,,---,0.00,0.00,VWS V14.00,2013-08-05 07:29:00,
2013-08-05 02:35:00,67.2,65.4,29.90,SSE,147,0.0,0.0,94,0.00,,---,0.00,0.00,VWS V14.00,2013-08-05 07:35:00,
2013-08-05 02:40:00,67.2,65.4,29.90,SSE,148,0.0,0.0,94,0.00,,---,0.00,0.00,VWS V14.00,2013-08-05 07:40:00,
2013-08-05 02:44:00,67.3,65.8,29.90,SSE,148,0.0,0.0,95,0.00,,---,0.00,0.00,VWS V14.00,2013-08-05 07:44:00,
2013-08-05 02:50:00,67.4,65.9,29.89,SSE,148,0.0,0.0,95,0.00,,---,0.00,0.00,VWS V14.00,2013-08-05 07:50:00,
2013-08-05 02:54:00,67.5,66.0,29.89,SSE,148,0.0,0.0,95,0.00,,---,0.00,0.00,VWS V14.00,2013-08-05 07:54:00,
2013-08-05 03:00:00,67.6,66.1,29.89,SSE,149,0.0,0.0,95,0.00,,---,0.00,0.00,VWS V14.00,2013-08-05 08:00:00,
2013-08-05 03:04:00,67.7,66.2,29.90,SSE,148,0.0,0.0,95,0.00,,---,0.00,0.00,VWS V14.00,2013-08-05 08:04:00,
2013-08-05 03:10:00,67.8,66.3,29.89,SSE,149,0.0,0.0,95,0.00,,---,0.00,0.00,VWS V14.00,2013-08-05 08:10:00,
2013-08-05 03:15:00,67.9,66.4,29.90,SSE,149,0.0,0.0,95,0.00,,---,0.00,0.00,VWS V14.00,2013-08-05 08:15:00,
2013-08-05 03:20:00,68.0,66.5,29.89,SSE,149,0.0,0.0,95,0.00,,---,0.00,0.00,VWS V14.00,2013-08-05 08:20:00,
2013-08-05 03:25:00,68.1,66.6,29.89,SSE,149,0.0,0.0,95,0.00,,---,0.00,0.00,VWS V14.00,2013-08-05 08:25:00,
2013-08-05 03:30:00,68.1,66.6,29.89,SSE,149,0.0,0.0,95,0.00,,---,0.00,0.00,VWS V14.00,2013-08-05 08:30:00,
2013-08-05 03:35:00,68.2,67.0,29.89,SSE,150,0.0,1.0,96,0.00,,---,0.00,0.00,VWS V14.00,2013-08-05 08:35:00,
2013-08-05 03:39:00,68.3,67.1,29.89,SSE,151,0.0,0.0,96,0.00,,---,0.00,0.00,VWS V14.00,2013-08-05 08:39:00,
2013-08-05 03:45:00,68.3,67.1,29.89,SSE,152,0.0,0.0,96,0.00,,---,0.00,0.00,VWS V14.00,2013-08-05 08:45:00,
2013-08-05 03:50:00,68.3,67.1,29.88,SSE,162,0.0,4.0,96,0.00,,---,0.00,0.00,VWS V14.00,2013-08-05 08:50:00,
2013-08-05 03:55:00,68.3,67.1,29.88,SSE,163,0.0,0.0,96,0.00,,---,0.00,0.00,VWS V14.00,2013-08-05 08:55:00,
2013-08-05 04:00:00,68.4,67.2,29.88,SSE,163,0.0,0.0,96,0.00,,---,0.00,0.00,VWS V14.00,2013-08-05 09:00:00,
2013-08-05 04:05:00,68.4,67.2,29.89,SSE,163,0.0,0.0,96,0.00,,---,0.00,0.00,VWS V14.00,2013-08-05 09:05:00,
2013-08-05 04:09:00,68.4,67.2,29.89,SSE,163,0.0,0.0,96,0.00,,---,0.00,0.00,VWS V14.00,2013-08-05 09:09:00,
2013-08-05 04:15:00,68.5,67.3,29.89,SSE,163,0.0,0.0,96,0.00,,---,0.00,0.00,VWS V14.00,2013-08-05 09:15:00,
2013-08-05 04:20:00,68.5,67.3,29.88,SSE,163,0.0,0.0,96,0.00,,---,0.00,0.00,VWS V14.00,2013-08-05 09:20:00,
2013-08-05 04:25:00,68.5,67.3,29.88,SSE,163,0.0,0.0,96,0.00,,---,0.00,0.00,VWS V14.00,2013-08-05 09:25:00,
2013-08-05 04:30:00,68.6,67.4,29.88,SSE,163,0.0,0.0,96,0.00,,---,0.00,0.00,VWS V14.00,2013-08-05 09:30:00,
2013-08-05 04:35:00,68.6,67.4,29.88,SSE,163,0.0,0.0,96,0.00,,---,0.00,0.00,VWS V14.00,2013-08-05 09:35:00,
2013-08-05 04:39:00,68.7,67.5,29.88,SSE,163,0.0,0.0,96,0.00,,---,0.00,0.00,VWS V14.00,2013-08-05 09:39:00,
2013-08-05 04:45:00,68.7,67.5,29.87,SSE,163,0.0,0.0,96,0.00,,---,0.00,0.00,VWS V14.00,2013-08-05 09:45:00,
2013-08-05 04:50:00,68.7,67.5,29.88,SSE,163,0.0,0.0,96,0.00,,---,0.00,0.00,VWS V14.00,2013-08-05 09:50:00,
2013-08-05 04:54:00,68.7,67.5,29.87,SSE,163,0.0,0.0,96,0.00,,---,0.00,0.00,VWS V14.00,2013-08-05 09:54:00,
2013-08-05 05:00:00,68.7,67.5,29.88,SSE,163,0.0,0.0,96,0.00,,---,0.00,0.00,VWS V14.00,2013-08-05 10:00:00,
2013-08-05 05:05:00,68.6,67.4,29.88,SSE,163,0.0,0.0,96,0.00,,---,0.00,0.00,VWS V14.00,2013-08-05 10:05:00,
2013-08-05 05:10:00,68.6,67.4,29.88,SSE,163,0.0,0.0,96,0.00,,---,0.00,0.00,VWS V14.00,2013-08-05 10:10:00,
2013-08-05 05:15:00,68.7,67.5,29.87,SSE,163,0.0,0.0,96,0.00,,---,0.00,0.00,VWS V14.00,2013-08-05 10:15:00,
2013-08-05 05:21:00,68.6,67.4,29.87,SSE,163,0.0,0.0,96,0.00,,---,0.00,0.00,VWS V14.00,2013-08-05 10:21:00,
2013-08-05 05:26:00,68.7,67.5,29.87,SSE,163,0.0,0.0,96,0.00,,---,0.00,0.00,VWS V14.00,2013-08-05 10:26:00,
2013-08-05 05:31:00,68.7,67.5,29.87,SSE,163,0.0,0.0,96,0.00,,---,0.00,0.00,VWS V14.00,2013-08-05 10:31:00,
2013-08-05 05:37:00,68.7,67.5,29.87,SSE,163,0.0,0.0,96,0.00,,---,0.00,0.00,VWS V14.00,2013-08-05 10:37:00,
2013-08-05 05:42:00,68.7,67.5,29.87,SSE,163,0.0,0.0,96,0.00,,---,0.00,0.00,VWS V14.00,2013-08-05 10:42:00,
2013-08-05 05:46:00,68.7,67.5,29.87,SSE,163,0.0,0.0,96,0.00,,---,0.00,0.00,VWS V14.00,2013-08-05 10:46:00,
2013-08-05 05:52:00,68.7,67.5,29.87,SSE,163,0.0,0.0,96,0.00,,---,0.00,0.00,VWS V14.00,2013-08-05 10:52:00,
2013-08-05 05:57:00,68.7,67.5,29.87,SSE,163,0.0,0.0,96,0.00,,---,0.00,0.00,VWS V14.00,2013-08-05 10:57:00,
2013-08-05 06:02:00,68.7,67.5,29.87,SSE,163,0.0,0.0,96,0.00,,---,0.00,0.00,VWS V14.00,2013-08-05 11:02:00,
2013-08-05 06:08:00,68.7,67.5,29.87,SSE,163,0.0,0.0,96,0.00,,---,0.00,0.00,VWS V14.00,2013-08-05 11:08:00,
2013-08-05 06:12:00,68.8,67.6,29.87,SSE,163,0.0,0.0,96,0.00,,---,0.00,0.00,VWS V14.00,2013-08-05 11:12:00,
2013-08-05 06:18:00,68.8,67.6,29.87,SSE,163,0.0,0.0,96,0.00,,---,0.00,0.00,VWS V14.00,2013-08-05 11:18:00,
2013-08-05 06:23:00,68.8,67.6,29.87,SSE,163,0.0,0.0,96,0.00,,---,0.00,0.00,VWS V14.00,2013-08-05 11:23:00,
2013-08-05 06:28:00,68.8,67.6,29.87,SSE,163,0.0,0.0,96,0.00,,---,0.00,0.00,VWS V14.00,2013-08-05 11:28:00,
2013-08-05 06:34:00,68.8,67.6,29.87,SSE,163,0.0,0.0,96,0.00,,---,0.00,0.00,VWS V14.00,2013-08-05 11:34:00,
2013-08-05 06:39:00,68.9,67.7,29.87,SSE,163,0.0,0.0,96,0.00,,---,0.00,0.00,VWS V14.00,2013-08-05 11:39:00,
2013-08-05 06:44:00,68.9,67.7,29.87,SSE,163,0.0,0.0,96,0.00,,---,0.00,5.00,VWS V14.00,2013-08-05 11:44:00,
2013-08-05 06:49:00,69.0,67.8,29.87,SSE,163,0.0,0.0,96,0.00,,---,0.00,7.00,VWS V14.00,2013-08-05 11:49:00,
2013-08-05 06:55:00,69.0,68.1,29.87,SSE,163,0.0,0.0,97,0.00,,---,0.00,9.00,VWS V14.00,2013-08-05 11:55:00,
2013-08-05 07:00:00,69.0,68.1,29.87,SSE,163,0.0,0.0,97,0.00,,---,0.00,9.00,VWS V14.00,2013-08-05 12:00:00,
2013-08-05 07:05:00,69.0,68.1,29.87,SSE,163,0.0,0.0,97,0.00,,---,0.00,12.00,VWS V14.00,2013-08-05 12:05:00,
2013-08-05 07:09:00,69.1,68.2,29.87,SSE,163,0.0,0.0,97,0.00,,---,0.00,14.00,VWS V14.00,2013-08-05 12:09:00,
2013-08-05 07:15:00,69.2,68.3,29.88,SSE,163,0.0,0.0,97,0.00,,---,0.00,14.00,VWS V14.00,2013-08-05 12:15:00,
2013-08-05 07:20:00,69.2,68.3,29.88,SSE,163,0.0,0.0,97,0.00,,---,0.00,18.00,VWS V14.00,2013-08-05 12:20:00,
2013-08-05 07:25:00,69.2,68.3,29.88,SSE,163,0.0,0.0,97,0.00,,---,0.00,19.00,VWS V14.00,2013-08-05 12:25:00,
2013-08-05 07:30:00,69.3,68.4,29.88,SSE,163,0.0,0.0,97,0.00,,---,0.00,16.00,VWS V14.00,2013-08-05 12:30:00,
2013-08-05 07:35:00,69.4,68.5,29.88,SSE,163,0.0,0.0,97,0.00,,---,0.00,18.00,VWS V14.00,2013-08-05 12:35:00,
2013-08-05 07:40:00,69.4,68.5,29.88,SSE,163,0.0,0.0,97,0.00,,---,0.00,28.00,VWS V14.00,2013-08-05 12:40:00,
2013-08-05 07:45:00,69.5,68.6,29.88,SSE,163,0.0,0.0,97,0.00,,---,0.00,35.00,VWS V14.00,2013-08-05 12:45:00,
2013-08-05 07:51:00,69.6,68.7,29.87,SSE,163,0.0,0.0,97,0.00,,---,0.00,35.00,VWS V14.00,2013-08-05 12:51:00,
2013-08-05 07:55:00,69.7,68.8,29.87,SSE,163,0.0,0.0,97,0.00,,---,0.00,46.00,VWS V14.00,2013-08-05 12:55:00,
2013-08-05 08:01:00,69.8,68.9,29.87,SSE,163,0.0,0.0,97,0.00,,---,0.00,46.00,VWS V14.00,2013-08-05 13:01:00,
2013-08-05 08:06:00,69.9,69.0,29.87,SSE,163,0.0,0.0,97,0.00,,---,0.00,53.00,VWS V14.00,2013-08-05 13:06:00,
2013-08-05 08:12:00,69.9,69.0,29.87,SSE,163,0.0,0.0,97,0.00,,---,0.00,47.00,VWS V14.00,2013-08-05 13:12:00,
2013-08-05 08:16:00,70.1,69.2,29.87,SSE,163,0.0,0.0,97,0.00,,---,0.00,49.00,VWS V14.00,2013-08-05 13:16:00,
2013-08-05 08:22:00,70.2,69.3,29.87,SSE,163,0.0,0.0,97,0.00,,---,0.00,51.00,VWS V14.00,2013-08-05 13:22:00,
2013-08-05 08:27:00,70.2,69.3,29.88,SSE,163,0.0,0.0,97,0.00,,---,0.00,44.00,VWS V14.00,2013-08-05 13:27:00,
2013-08-05 08:32:00,70.4,69.5,29.88,SSE,163,0.0,0.0,97,0.00,,---,0.00,44.00,VWS V14.00,2013-08-05 13:32:00,
2013-08-05 08:37:00,70.4,69.5,29.88,SSE,163,0.0,0.0,97,0.00,,---,0.00,40.00,VWS V14.00,2013-08-05 13:37:00,
2013-08-05 08:43:00,70.5,69.6,29.87,SSE,163,0.0,0.0,97,0.00,,---,0.00,37.00,VWS V14.00,2013-08-05 13:43:00,
2013-08-05 08:48:00,70.6,69.7,29.87,SSE,163,0.0,0.0,97,0.00,,---,0.00,53.00,VWS V14.00,2013-08-05 13:48:00,
2013-08-05 08:53:00,70.7,69.8,29.86,SSE,163,0.0,0.0,97,0.00,,---,0.00,51.00,VWS V14.00,2013-08-05 13:53:00,
2013-08-05 08:58:00,70.8,69.9,29.86,SSE,163,0.0,0.0,97,0.00,,---,0.00,97.00,VWS V14.00,2013-08-05 13:58:00,
2013-08-05 09:04:00,70.9,70.0,29.86,SSE,163,0.0,0.0,97,0.00,,---,0.00,100.00,VWS V14.00,2013-08-05 14:04:00,
2013-08-05 09:09:00,71.1,70.2,29.86,SSE,163,0.0,0.0,97,0.00,,---,0.00,74.00,VWS V14.00,2013-08-05 14:09:00,
2013-08-05 09:14:00,71.2,70.3,29.86,SSE,163,0.0,0.0,97,0.00,,---,0.00,132.00,VWS V14.00,2013-08-05 14:14:00,
2013-08-05 09:19:00,71.4,70.5,29.86,SSE,163,0.0,0.0,97,0.00,,---,0.00,114.00,VWS V14.00,2013-08-05 14:19:00,
2013-08-05 09:24:00,71.5,70.6,29.86,SSE,163,0.0,0.0,97,0.00,,---,0.00,90.00,VWS V14.00,2013-08-05 14:24:00,
2013-08-05 09:29:00,71.6,70.7,29.87,SSE,163,0.0,0.0,97,0.00,,---,0.00,102.00,VWS V14.00,2013-08-05 14:29:00,
2013-08-05 09:34:00,71.8,71.2,29.87,SSE,163,0.0,0.0,98,0.00,,---,0.00,54.00,VWS V14.00,2013-08-05 14:34:00,
2013-08-05 09:39:00,71.9,71.0,29.87,SSE,163,0.0,0.0,97,0.00,,---,0.00,62.00,VWS V14.00,2013-08-05 14:39:00,
2013-08-05 09:45:00,72.0,71.1,29.87,SSE,163,0.0,0.0,97,0.00,,---,0.00,53.00,VWS V14.00,2013-08-05 14:45:00,
2013-08-05 09:50:00,72.1,71.2,29.88,SSE,163,0.0,0.0,97,0.00,,---,0.00,65.00,VWS V14.00,2013-08-05 14:50:00,
2013-08-05 09:55:00,72.2,71.3,29.87,SSE,163,0.0,0.0,97,0.00,,---,0.00,62.00,VWS V14.00,2013-08-05 14:55:00,
2013-08-05 10:00:00,72.3,71.4,29.87,SSE,163,0.0,0.0,97,0.00,,---,0.00,62.00,VWS V14.00,2013-08-05 15:00:00,
2013-08-05 10:05:00,72.4,71.8,29.87,SSE,163,0.0,0.0,98,0.00,,---,0.00,81.00,VWS V14.00,2013-08-05 15:05:00,
2013-08-05 10:10:00,72.6,72.0,29.87,SSE,163,0.0,0.0,98,0.00,,---,0.00,153.00,VWS V14.00,2013-08-05 15:10:00,
2013-08-05 10:15:00,72.8,71.9,29.87,SSE,163,0.0,0.0,97,0.00,,---,0.00,79.00,VWS V14.00,2013-08-05 15:15:00,
2013-08-05 10:20:00,72.9,72.0,29.87,SSE,163,0.0,0.0,97,0.00,,---,0.00,84.00,VWS V14.00,2013-08-05 15:20:00,
2013-08-05 10:25:00,73.0,72.4,29.87,SSE,163,0.0,0.0,98,0.00,,---,0.00,72.00,VWS V14.00,2013-08-05 15:25:00,
2013-08-05 10:31:00,73.2,72.6,29.87,SSE,163,0.0,0.0,98,0.00,,---,0.00,49.00,VWS V14.00,2013-08-05 15:31:00,
2013-08-05 10:36:00,73.2,72.6,29.88,SSE,163,0.0,0.0,98,0.00,,---,0.00,32.00,VWS V14.00,2013-08-05 15:36:00,
2013-08-05 10:41:00,73.1,72.2,29.89,SSE,163,0.0,0.0,97,0.00,,---,0.00,7.00,VWS V14.00,2013-08-05 15:41:00,
2013-08-05 10:47:00,72.8,71.9,29.90,NW,324,2.0,2.0,97,0.00,,---,0.00,12.00,VWS V14.00,2013-08-05 15:47:00,
2013-08-05 10:52:00,72.0,70.8,29.89,NNW,328,0.0,2.0,96,0.00,,---,0.00,54.00,VWS V14.00,2013-08-05 15:52:00,
2013-08-05 10:57:00,71.4,70.2,29.90,NNW,329,0.0,0.0,96,0.00,,---,0.00,137.00,VWS V14.00,2013-08-05 15:57:00,
2013-08-05 11:03:00,71.2,70.3,29.90,NNW,329,0.0,0.0,97,0.00,,---,0.00,65.00,VWS V14.00,2013-08-05 16:03:00,
2013-08-05 11:08:00,71.1,70.2,29.90,NNW,329,0.0,0.0,97,0.00,,---,0.00,141.00,VWS V14.00,2013-08-05 16:08:00,
2013-08-05 11:13:00,71.0,70.1,29.90,NNW,329,0.0,0.0,97,0.00,,---,0.00,176.00,VWS V14.00,2013-08-05 16:13:00,
2013-08-05 11:18:00,71.1,70.2,29.90,NNW,329,0.0,0.0,97,0.00,,---,0.00,88.00,VWS V14.00,2013-08-05 16:18:00,
2013-08-05 11:23:00,71.1,70.2,29.90,NNW,329,0.0,0.0,97,0.00,,---,0.00,98.00,VWS V14.00,2013-08-05 16:23:00,
2013-08-05 11:28:00,71.1,70.2,29.91,NNW,329,0.0,0.0,97,0.00,,---,0.00,42.00,VWS V14.00,2013-08-05 16:28:00,
2013-08-05 11:33:00,71.0,70.1,29.92,NNW,329,0.0,0.0,97,0.00,,---,0.00,26.00,VWS V14.00,2013-08-05 16:33:00,
2013-08-05 11:38:00,70.6,69.4,29.92,North,355,0.0,8.0,96,0.00,,---,0.01,51.00,VWS V14.00,2013-08-05 16:38:00,
2013-08-05 11:43:00,70.1,68.9,29.92,NNW,345,0.0,1.0,96,0.00,,---,0.01,56.00,VWS V14.00,2013-08-05 16:43:00,
2013-08-05 11:48:00,69.8,68.6,29.92,NNW,344,0.0,0.0,96,0.00,,---,0.01,63.00,VWS V14.00,2013-08-05 16:48:00,
2013-08-05 11:53:00,69.7,68.5,29.92,NNW,344,0.0,0.0,96,0.00,,---,0.01,65.00,VWS V14.00,2013-08-05 16:53:00,
2013-08-05 11:58:00,69.7,68.5,29.91,NNW,344,0.0,0.0,96,0.00,,---,0.01,144.00,VWS V14.00,2013-08-05 16:58:00,
2013-08-05 12:04:00,69.6,68.4,29.89,NNW,344,0.0,0.0,96,0.00,,---,0.01,134.00,VWS V14.00,2013-08-05 17:04:00,
2013-08-05 12:09:00,69.7,68.5,29.88,NNW,344,0.0,0.0,96,0.00,,---,0.01,127.00,VWS V14.00,2013-08-05 17:09:00,
2013-08-05 12:14:00,69.7,68.5,29.86,NNW,344,0.0,0.0,96,0.00,,---,0.01,128.00,VWS V14.00,2013-08-05 17:14:00,
2013-08-05 12:19:00,69.9,68.7,29.85,NNW,346,0.0,0.0,96,0.00,,---,0.01,211.00,VWS V14.00,2013-08-05 17:19:00,
2013-08-05 12:24:00,69.8,68.6,29.84,North,355,0.0,0.0,96,0.00,,---,0.01,165.00,VWS V14.00,2013-08-05 17:24:00,
2013-08-05 12:29:00,69.9,68.7,29.84,North,355,2.0,2.0,96,0.00,,---,0.01,158.00,VWS V14.00,2013-08-05 17:29:00,
2013-08-05 12:35:00,70.0,68.8,29.84,North,355,0.0,0.0,96,0.00,,---,0.01,200.00,VWS V14.00,2013-08-05 17:35:00,
2013-08-05 12:40:00,70.1,68.9,29.84,North,355,0.0,0.0,96,0.00,,---,0.01,221.00,VWS V14.00,2013-08-05 17:40:00,
2013-08-05 12:45:00,70.2,69.0,29.83,North,355,0.0,0.0,96,0.00,,---,0.01,232.00,VWS V14.00,2013-08-05 17:45:00,
2013-08-05 12:50:00,70.5,69.3,29.85,North,355,0.0,0.0,96,0.00,,---,0.01,250.00,VWS V14.00,2013-08-05 17:50:00,
2013-08-05 12:55:00,70.9,69.7,29.85,North,349,0.0,0.0,96,0.00,,---,0.01,211.00,VWS V14.00,2013-08-05 17:55:00,
2013-08-05 13:00:00,71.2,69.7,29.83,NW,322,0.0,0.0,95,0.00,,---,0.01,230.00,VWS V14.00,2013-08-05 18:00:00,
2013-08-05 13:05:00,71.4,69.9,29.83,West,261,0.0,0.0,95,0.00,,---,0.01,285.00,VWS V14.00,2013-08-05 18:05:00,
2013-08-05 13:10:00,71.8,70.3,29.83,SSE,163,0.0,0.0,95,0.00,,---,0.01,325.00,VWS V14.00,2013-08-05 18:10:00,
2013-08-05 13:15:00,72.2,70.7,29.82,SSE,163,0.0,0.0,95,0.00,,---,0.01,343.00,VWS V14.00,2013-08-05 18:15:00,
2013-08-05 13:20:00,72.6,71.1,29.82,SSE,164,0.0,0.0,95,0.00,,---,0.01,485.00,VWS V14.00,2013-08-05 18:20:00,
2013-08-05 13:25:00,74.1,72.9,29.81,SSE,165,0.0,0.0,96,0.00,,---,0.01,485.00,VWS V14.00,2013-08-05 18:25:00,
2013-08-05 13:30:00,75.1,73.6,29.80,SSE,165,0.0,0.0,95,0.00,,---,0.01,380.00,VWS V14.00,2013-08-05 18:30:00,
2013-08-05 13:35:00,75.5,73.7,29.80,South,181,0.0,0.0,94,0.00,,---,0.01,348.00,VWS V14.00,2013-08-05 18:35:00,
2013-08-05 13:40:00,75.7,73.5,29.79,SSE,168,0.0,0.0,93,0.00,,---,0.01,345.00,VWS V14.00,2013-08-05 18:40:00,
2013-08-05 13:45:00,76.0,73.5,29.77,South,188,0.0,0.0,92,0.00,,---,0.01,366.00,VWS V14.00,2013-08-05 18:45:00,
2013-08-05 13:50:00,76.2,73.4,29.79,South,191,0.0,0.0,91,0.00,,---,0.01,404.00,VWS V14.00,2013-08-05 18:50:00,
2013-08-05 13:55:00,77.3,74.1,29.78,South,181,0.0,0.0,90,0.00,,---,0.01,190.00,VWS V14.00,2013-08-05 18:55:00,
2013-08-05 14:00:00,77.5,73.3,29.79,South,181,0.0,0.0,87,0.00,,---,0.01,176.00,VWS V14.00,2013-08-05 19:00:00,
2013-08-05 14:05:00,77.6,73.4,29.79,South,182,0.0,0.0,87,0.00,,---,0.01,241.00,VWS V14.00,2013-08-05 19:05:00,
2013-08-05 14:10:00,77.6,73.4,29.79,South,188,0.0,0.0,87,0.00,,---,0.01,260.00,VWS V14.00,2013-08-05 19:10:00,
2013-08-05 14:15:00,77.8,73.6,29.80,South,187,0.0,0.0,87,0.00,,---,0.01,325.00,VWS V14.00,2013-08-05 19:15:00,
2013-08-05 14:20:00,78.0,73.5,29.79,South,176,0.0,0.0,86,0.00,,---,0.01,202.00,VWS V14.00,2013-08-05 19:20:00,
2013-08-05 14:25:00,78.2,73.7,29.80,South,178,0.0,0.0,86,0.00,,---,0.01,183.00,VWS V14.00,2013-08-05 19:25:00,
2013-08-05 14:30:00,78.4,73.9,29.81,South,179,0.0,0.0,86,0.00,,---,0.01,214.00,VWS V14.00,2013-08-05 19:30:00,
2013-08-05 14:35:00,78.8,74.6,29.82,South,179,0.0,0.0,87,0.00,,---,0.01,355.00,VWS V14.00,2013-08-05 19:35:00,
2013-08-05 14:40:00,79.5,75.3,29.82,South,179,0.0,0.0,87,0.00,,---,0.01,468.00,VWS V14.00,2013-08-05 19:40:00,
2013-08-05 14:45:00,79.9,74.6,29.82,South,179,0.0,0.0,84,0.00,,---,0.01,462.00,VWS V14.00,2013-08-05 19:45:00,
2013-08-05 14:51:00,80.9,75.3,29.82,South,179,0.0,0.0,83,0.00,,---,0.01,417.00,VWS V14.00,2013-08-05 19:51:00,
2013-08-05 14:56:00,81.6,75.6,29.82,South,179,0.0,0.0,82,0.00,,---,0.01,406.00,VWS V14.00,2013-08-05 19:56:00,
2013-08-05 15:01:00,81.9,75.1,29.82,South,179,0.0,0.0,80,0.00,,---,0.01,496.00,VWS V14.00,2013-08-05 20:01:00,
2013-08-05 15:07:00,82.4,75.2,29.83,South,182,0.0,0.0,79,0.00,,---,0.01,840.00,VWS V14.00,2013-08-05 20:07:00,
2013-08-05 15:12:00,83.0,75.4,29.83,South,182,0.0,0.0,78,0.00,,---,0.01,390.00,VWS V14.00,2013-08-05 20:12:00,
2013-08-05 15:17:00,83.3,75.3,29.83,South,185,0.0,0.0,77,0.00,,---,0.01,350.00,VWS V14.00,2013-08-05 20:17:00,
2013-08-05 15:22:00,83.3,75.3,29.83,South,185,0.0,0.0,77,0.00,,---,0.01,482.00,VWS V14.00,2013-08-05 20:22:00,
2013-08-05 15:27:00,83.2,74.8,29.83,South,185,0.0,0.0,76,0.00,,---,0.01,401.00,VWS V14.00,2013-08-05 20:27:00,
2013-08-05 15:32:00,83.2,75.6,29.82,South,185,0.0,0.0,78,0.00,,---,0.01,429.00,VWS V14.00,2013-08-05 20:32:00,
2013-08-05 15:38:00,83.2,75.2,29.82,South,185,0.0,0.0,77,0.00,,---,0.01,401.00,VWS V14.00,2013-08-05 20:38:00,
2013-08-05 15:43:00,83.1,75.2,29.82,South,185,0.0,0.0,77,0.00,,---,0.01,346.00,VWS V14.00,2013-08-05 20:43:00,
2013-08-05 15:48:00,83.0,74.7,29.82,South,185,0.0,0.0,76,0.00,,---,0.01,408.00,VWS V14.00,2013-08-05 20:48:00,
2013-08-05 15:53:00,82.8,74.9,29.82,South,185,0.0,0.0,77,0.00,,---,0.01,295.00,VWS V14.00,2013-08-05 20:53:00,
2013-08-05 15:58:00,82.8,74.9,29.82,South,185,0.0,0.0,77,0.00,,---,0.01,420.00,VWS V14.00,2013-08-05 20:58:00,
2013-08-05 16:03:00,82.7,75.2,29.82,SSW,207,0.0,1.0,78,0.00,,---,0.01,452.00,VWS V14.00,2013-08-05 21:03:00,
2013-08-05 16:08:00,82.8,75.2,29.82,SW,217,0.0,1.0,78,0.00,,---,0.01,462.00,VWS V14.00,2013-08-05 21:08:00,
2013-08-05 16:13:00,83.2,75.2,29.82,SW,229,0.0,0.0,77,0.00,,---,0.01,722.00,VWS V14.00,2013-08-05 21:13:00,
2013-08-05 16:19:00,83.5,75.1,29.82,WSW,238,0.0,0.0,76,0.00,,---,0.01,682.00,VWS V14.00,2013-08-05 21:19:00,
2013-08-05 16:24:00,83.6,75.2,29.82,WSW,240,0.0,0.0,76,0.00,,---,0.01,684.00,VWS V14.00,2013-08-05 21:24:00,
2013-08-05 16:29:00,83.6,75.2,29.81,WSW,247,0.0,0.0,76,0.00,,---,0.01,236.00,VWS V14.00,2013-08-05 21:29:00,
2013-08-05 16:34:00,83.5,75.5,29.81,WSW,247,0.0,0.0,77,0.00,,---,0.01,675.00,VWS V14.00,2013-08-05 21:34:00,
2013-08-05 16:39:00,83.7,75.3,29.81,West,279,0.0,1.0,76,0.00,,---,0.01,636.00,VWS V14.00,2013-08-05 21:39:00,
2013-08-05 16:45:00,83.7,75.3,29.81,West,279,0.0,0.0,76,0.00,,---,0.01,613.00,VWS V14.00,2013-08-05 21:45:00,
2013-08-05 16:50:00,83.8,75.4,29.81,West,279,0.0,1.0,76,0.00,,---,0.01,580.00,VWS V14.00,2013-08-05 21:50:00,
2013-08-05 16:55:00,83.9,75.1,29.81,West,280,0.0,0.0,75,0.00,,---,0.01,563.00,VWS V14.00,2013-08-05 21:55:00,
2013-08-05 17:00:00,84.0,75.6,29.81,West,280,0.0,0.0,76,0.00,,---,0.01,566.00,VWS V14.00,2013-08-05 22:00:00,
2013-08-05 17:05:00,84.0,75.2,29.81,West,280,0.0,0.0,75,0.00,,---,0.01,545.00,VWS V14.00,2013-08-05 22:05:00,
2013-08-05 17:10:00,84.0,75.6,29.81,West,280,0.0,0.0,76,0.00,,---,0.01,531.00,VWS V14.00,2013-08-05 22:10:00,
2013-08-05 17:15:00,84.2,75.8,29.81,West,280,0.0,0.0,76,0.00,,---,0.01,192.00,VWS V14.00,2013-08-05 22:15:00,
2013-08-05 17:21:00,84.1,75.3,29.80,West,281,0.0,0.0,75,0.00,,---,0.01,450.00,VWS V14.00,2013-08-05 22:21:00,
2013-08-05 17:26:00,84.1,75.3,29.81,WNW,285,0.0,0.0,75,0.00,,---,0.01,504.00,VWS V14.00,2013-08-05 22:26:00,
2013-08-05 17:31:00,84.1,75.7,29.81,WNW,285,0.0,0.0,76,0.00,,---,0.01,543.00,VWS V14.00,2013-08-05 22:31:00,
2013-08-05 17:36:00,84.2,75.8,29.81,WNW,285,0.0,0.0,76,0.00,,---,0.01,427.00,VWS V14.00,2013-08-05 22:36:00,
2013-08-05 17:42:00,84.2,75.4,29.81,WNW,285,0.0,0.0,75,0.00,,---,0.01,397.00,VWS V14.00,2013-08-05 22:42:00,
2013-08-05 17:47:00,84.2,75.0,29.81,WNW,285,0.0,0.0,74,0.00,,---,0.01,192.00,VWS V14.00,2013-08-05 22:47:00,
2013-08-05 17:52:00,84.0,75.2,29.80,WNW,285,0.0,0.0,75,0.00,,---,0.01,118.00,VWS V14.00,2013-08-05 22:52:00,
2013-08-05 17:57:00,83.7,75.3,29.81,WNW,285,0.0,0.0,76,0.00,,---,0.01,383.00,VWS V14.00,2013-08-05 22:57:00,
2013-08-05 18:03:00,83.4,75.4,29.81,WNW,285,0.0,0.0,77,0.00,,---,0.01,364.00,VWS V14.00,2013-08-05 23:03:00,
2013-08-05 18:08:00,83.2,74.8,29.81,WNW,285,0.0,0.0,76,0.00,,---,0.01,343.00,VWS V14.00,2013-08-05 23:08:00,
2013-08-05 18:13:00,83.2,75.2,29.81,WNW,285,0.0,0.0,77,0.00,,---,0.01,320.00,VWS V14.00,2013-08-05 23:13:00,
2013-08-05 18:18:00,83.2,75.2,29.81,WNW,285,0.0,0.0,77,0.00,,---,0.01,327.00,VWS V14.00,2013-08-05 23:18:00,
2013-08-05 18:23:00,83.1,74.8,29.80,WNW,285,0.0,0.0,76,0.00,,---,0.01,111.00,VWS V14.00,2013-08-05 23:23:00,
2013-08-05 18:28:00,83.0,74.7,29.80,WNW,285,0.0,1.0,76,0.00,,---,0.01,118.00,VWS V14.00,2013-08-05 23:28:00,
2013-08-05 18:33:00,82.9,74.6,29.80,WNW,285,0.0,0.0,76,0.00,,---,0.01,123.00,VWS V14.00,2013-08-05 23:33:00,
2013-08-05 18:38:00,82.8,74.5,29.80,WNW,285,0.0,0.0,76,0.00,,---,0.01,90.00,VWS V14.00,2013-08-05 23:38:00,
2013-08-05 18:44:00,82.6,74.3,29.80,WNW,285,0.0,0.0,76,0.00,,---,0.01,98.00,VWS V14.00,2013-08-05 23:44:00,
2013-08-05 18:49:00,82.6,74.7,29.81,WNW,285,0.0,0.0,77,0.00,,---,0.01,100.00,VWS V14.00,2013-08-05 23:49:00,
2013-08-05 18:54:00,82.5,74.6,29.80,WNW,285,0.0,0.0,77,0.00,,---,0.01,102.00,VWS V14.00,2013-08-05 23:54:00,
2013-08-05 18:59:00,82.5,74.6,29.80,WNW,285,0.0,0.0,77,0.00,,---,0.01,105.00,VWS V14.00,2013-08-05 23:59:00,
2013-08-05 19:05:00,82.3,74.0,29.80,WNW,285,0.0,0.0,76,0.00,,---,0.01,91.00,VWS V14.00,2013-08-06 00:05:00,
2013-08-05 19:10:00,82.3,74.0,29.80,WNW,285,0.0,0.0,76,0.00,,---,0.01,81.00,VWS V14.00,2013-08-06 00:10:00,
2013-08-05 19:15:00,82.1,73.8,29.80,WNW,285,0.0,0.0,76,0.00,,---,0.01,76.00,VWS V14.00,2013-08-06 00:15:00,
2013-08-05 19:20:00,82.1,73.8,29.81,WNW,285,0.0,0.0,76,0.00,,---,0.01,65.00,VWS V14.00,2013-08-06 00:20:00,
2013-08-05 19:25:00,82.0,73.7,29.81,WNW,285,0.0,0.0,76,0.00,,---,0.01,69.00,VWS V14.00,2013-08-06 00:25:00,
2013-08-05 19:30:00,81.9,73.6,29.81,WNW,285,0.0,0.0,76,0.00,,---,0.01,77.00,VWS V14.00,2013-08-06 00:30:00,
2013-08-05 19:35:00,81.8,73.5,29.81,WNW,285,0.0,0.0,76,0.00,,---,0.01,63.00,VWS V14.00,2013-08-06 00:35:00,
2013-08-05 19:41:00,81.7,73.8,29.81,WNW,285,0.0,0.0,77,0.00,,---,0.01,51.00,VWS V14.00,2013-08-06 00:41:00,
2013-08-05 19:46:00,81.6,73.7,29.81,WNW,285,0.0,0.0,77,0.00,,---,0.01,44.00,VWS V14.00,2013-08-06 00:46:00,
2013-08-05 19:51:00,81.5,73.6,29.82,WNW,285,0.0,0.0,77,0.00,,---,0.01,33.00,VWS V14.00,2013-08-06 00:51:00,
2013-08-05 19:56:00,81.4,73.9,29.82,WNW,285,0.0,0.0,78,0.00,,---,0.01,30.00,VWS V14.00,2013-08-06 00:56:00,
2013-08-05 20:01:00,81.3,73.8,29.82,WNW,285,0.0,0.0,78,0.00,,---,0.01,35.00,VWS V14.00,2013-08-06 01:01:00,
2013-08-05 20:06:00,81.1,73.6,29.82,WNW,285,0.0,0.0,78,0.00,,---,0.01,30.00,VWS V14.00,2013-08-06 01:06:00,
2013-08-05 20:12:00,81.0,73.5,29.82,WNW,285,0.0,0.0,78,0.00,,---,0.01,25.00,VWS V14.00,2013-08-06 01:12:00,
2013-08-05 20:17:00,80.9,73.4,29.82,WNW,285,0.0,0.0,78,0.00,,---,0.01,16.00,VWS V14.00,2013-08-06 01:17:00,
2013-08-05 20:22:00,80.7,73.2,29.81,WNW,285,0.0,0.0,78,0.00,,---,0.01,12.00,VWS V14.00,2013-08-06 01:22:00,
2013-08-05 20:27:00,80.6,73.5,29.80,WNW,285,0.0,0.0,79,0.00,,---,0.01,9.00,VWS V14.00,2013-08-06 01:27:00,
2013-08-05 20:32:00,80.4,73.3,29.80,WNW,285,0.0,0.0,79,0.00,,---,0.01,7.00,VWS V14.00,2013-08-06 01:32:00,
2013-08-05 20:37:00,80.2,73.1,29.80,WNW,285,0.0,0.0,79,0.00,,---,0.01,5.00,VWS V14.00,2013-08-06 01:37:00,
2013-08-05 20:43:00,80.0,73.3,29.79,WNW,285,0.0,0.0,80,0.00,,---,0.01,0.00,VWS V14.00,2013-08-06 01:43:00,
2013-08-05 20:48:00,79.8,73.1,29.79,WNW,285,0.0,0.0,80,0.00,,---,0.01,0.00,VWS V14.00,2013-08-06 01:48:00,
2013-08-05 20:53:00,79.6,72.9,29.79,WNW,285,0.0,0.0,80,0.00,,---,0.01,0.00,VWS V14.00,2013-08-06 01:53:00,
2013-08-05 20:58:00,79.3,72.6,29.79,WNW,285,0.0,0.0,80,0.00,,---,0.01,0.00,VWS V14.00,2013-08-06 01:58:00,
2013-08-05 21:03:00,79.0,72.7,29.79,WNW,285,0.0,0.0,81,0.00,,---,0.01,0.00,VWS V14.00,2013-08-06 02:03:00,
2013-08-05 21:08:00,78.7,72.4,29.78,WNW,285,0.0,0.0,81,0.00,,---,0.01,0.00,VWS V14.00,2013-08-06 02:08:00,
2013-08-05 21:14:00,78.5,72.2,29.78,WNW,285,0.0,0.0,81,0.00,,---,0.01,0.00,VWS V14.00,2013-08-06 02:14:00,
2013-08-05 21:19:00,78.3,72.4,29.78,WNW,285,0.0,0.0,82,0.00,,---,0.01,0.00,VWS V14.00,2013-08-06 02:19:00,
2013-08-05 21:24:00,78.0,72.1,29.79,WNW,285,0.0,0.0,82,0.00,,---,0.01,0.00,VWS V14.00,2013-08-06 02:24:00,
2013-08-05 21:29:00,77.8,71.9,29.79,WNW,285,0.0,0.0,82,0.00,,---,0.01,0.00,VWS V14.00,2013-08-06 02:29:00,
2013-08-05 21:34:00,77.6,71.7,29.79,WNW,285,0.0,0.0,82,0.00,,---,0.01,0.00,VWS V14.00,2013-08-06 02:34:00,
2013-08-05 21:39:00,77.3,71.7,29.79,WNW,285,0.0,0.0,83,0.00,,---,0.01,0.00,VWS V14.00,2013-08-06 02:39:00,
2013-08-05 21:44:00,77.1,71.5,29.80,WNW,285,0.0,0.0,83,0.00,,---,0.01,0.00,VWS V14.00,2013-08-06 02:44:00,
2013-08-05 21:50:00,76.9,71.3,29.79,WNW,285,0.0,0.0,83,0.00,,---,0.01,0.00,VWS V14.00,2013-08-06 02:50:00,
2013-08-05 21:55:00,76.7,71.2,29.79,WNW,285,0.0,0.0,83,0.00,,---,0.01,0.00,VWS V14.00,2013-08-06 02:55:00,
2013-08-05 22:00:00,76.6,71.1,29.78,WNW,285,0.0,0.0,83,0.00,,---,0.01,0.00,VWS V14.00,2013-08-06 03:00:00,
2013-08-05 22:05:00,76.4,71.2,29.79,WNW,285,0.0,0.0,84,0.00,,---,0.01,0.00,VWS V14.00,2013-08-06 03:05:00,
2013-08-05 22:10:00,76.3,71.5,29.79,WNW,285,0.0,0.0,85,0.00,,---,0.01,0.00,VWS V14.00,2013-08-06 03:10:00,
2013-08-05 22:15:00,76.2,71.4,29.79,WNW,285,0.0,0.0,85,0.00,,---,0.01,0.00,VWS V14.00,2013-08-06 03:15:00,
2013-08-05 22:20:00,76.1,71.3,29.79,WNW,285,0.0,0.0,85,0.00,,---,0.01,0.00,VWS V14.00,2013-08-06 03:20:00,
2013-08-05 22:25:00,76.1,71.6,29.79,WNW,285,0.0,0.0,86,0.00,,---,0.01,0.00,VWS V14.00,2013-08-06 03:25:00,
2013-08-05 22:31:00,76.0,71.5,29.80,WNW,285,0.0,0.0,86,0.00,,---,0.01,0.00,VWS V14.00,2013-08-06 03:31:00,
2013-08-05 22:36:00,75.9,71.4,29.80,WNW,285,0.0,0.0,86,0.00,,---,0.01,0.00,VWS V14.00,2013-08-06 03:36:00,
2013-08-05 22:41:00,75.8,71.3,29.79,WNW,285,0.0,0.0,86,0.00,,---,0.01,0.00,VWS V14.00,2013-08-06 03:41:00,
2013-08-05 22:46:00,75.8,71.3,29.79,WNW,285,0.0,0.0,86,0.00,,---,0.01,0.00,VWS V14.00,2013-08-06 03:46:00,
2013-08-05 22:51:00,75.7,71.2,29.79,WNW,285,0.0,0.0,86,0.00,,---,0.01,0.00,VWS V14.00,2013-08-06 03:51:00,
2013-08-05 22:56:00,75.6,71.1,29.79,WNW,285,0.0,0.0,86,0.00,,---,0.01,0.00,VWS V14.00,2013-08-06 03:56:00,
2013-08-05 23:01:00,75.6,71.5,29.79,WNW,285,0.0,0.0,87,0.00,,---,0.01,0.00,VWS V14.00,2013-08-06 04:01:00,
2013-08-05 23:02:00,75.5,71.4,29.79,WNW,285,0.0,0.0,87,0.00,,---,0.01,0.00,VWS V14.00,2013-08-06 04:02:00,
2013-08-05 23:05:00,75.5,71.4,29.80,WNW,285,0.0,0.0,87,0.00,,---,0.01,0.00,VWS V14.00,2013-08-06 04:05:00,
2013-08-05 23:10:00,75.4,71.3,29.80,WNW,285,0.0,0.0,87,0.00,,---,0.01,0.00,VWS V14.00,2013-08-06 04:10:00,
2013-08-05 23:15:00,75.3,71.2,29.79,WNW,285,0.0,0.0,87,0.00,,---,0.01,0.00,VWS V14.00,2013-08-06 04:15:00,
2013-08-05 23:20:00,75.2,71.1,29.79,WNW,285,0.0,0.0,87,0.00,,---,0.01,0.00,VWS V14.00,2013-08-06 04:20:00,
2013-08-05 23:25:00,75.1,71.0,29.80,WNW,285,0.0,0.0,87,0.00,,---,0.01,0.00,VWS V14.00,2013-08-06 04:25:00,
2013-08-05 23:30:00,75.1,71.3,29.80,WNW,285,0.0,0.0,88,0.00,,---,0.01,0.00,VWS V14.00,2013-08-06 04:30:00,
2013-08-05 23:35:00,75.0,71.2,29.81,WNW,285,0.0,0.0,88,0.00,,---,0.01,0.00,VWS V14.00,2013-08-06 04:35:00,
2013-08-05 23:40:00,74.9,71.1,29.81,WNW,285,0.0,0.0,88,0.00,,---,0.01,0.00,VWS V14.00,2013-08-06 04:40:00,
2013-08-05 23:46:00,74.8,71.0,29.81,WNW,285,0.0,0.0,88,0.00,,---,0.01,0.00,VWS V14.00,2013-08-06 04:46:00,
2013-08-05 23:51:00,74.6,70.8,29.81,WNW,285,0.0,0.0,88,0.00,,---,0.01,0.00,VWS V14.00,2013-08-06 04:51:00,
2013-08-05 23:56:00,74.5,70.7,29.81,WNW,285,0.0,0.0,88,0.00,,---,0.00,0.00,VWS V14.00,2013-08-06 04:56:00,